Terminal Aerodrome Forecast
Issued by NWS

Home | Current Version | Previous Version | Text Only | Print | Product List | Glossary On
Versions: 1 2 3 4 5 6 7 8 9 10 11 12 13
000
FTUS43 KOAX 211728
TAFSNY
TAF
KSNY 211728Z 2118/2218 31020G30KT P6SM SKC
     FM220000 28012KT P6SM SKC
     FM221700 29020G32KT P6SM SCT250=

USA.gov is the U.S. government's official web portal to all federal, state and local government web resources and services.